Decoded Metar for GMMC (CASABLANCA in MOROCCO) (IATA:CAS) | Meteo·Mobile Aviation Weather
aviador You're here:

GMMC Decoded Metar

CASABLANCA in MOROCCO
Report Time2018-09-19 15:00:00
UTC Time2018-09-19 15:32:38
Flight Rules vfr VFR
Wind020° at 12 kt
W.Rank020° ranks 1
Current wind is above 020° avg. (7.7)
Visibility9999 m
Phenomena:N/A
Clouds:N/A
Expected CloudBase > 3,600 ft AGL from Temp-Dew spread
CeilingNone
Temp28°C (ISA +13)
Dew Point19°C (58% RH)
Heat Index29.2°C
AAT26.9°C
QNH1017 hPa
Density Alt1,903 ft
Elevation203 ft
Report Wrong Elevation
Raw Report
GMMC 191500Z 02012KT CAVOK 28/19 Q1017 NOSIG=

Extra information for GMMC:More info

Metar Taf Metar & Taf Last 4 Metars F.Rules Stats Wind Profile Meteogram Temp Stats Airport Information Weather charts Add Link Nearby VenuesMetar ALERT Operation Metar Decoded Social comments